createdAt,value
2023-05-13T00:03:33.446Z,4.40
2023-05-13T00:06:00.827Z,4.45
2023-05-13T00:08:27.649Z,4.43
2023-05-13T00:10:54.764Z,5.00
2023-05-13T00:13:22.107Z,4.55
2023-05-13T00:15:49.353Z,4.90
2023-05-13T00:18:16.347Z,4.72
2023-05-13T00:20:43.553Z,4.72
2023-05-13T00:23:11.612Z,5.32
2023-05-13T00:25:39.007Z,5.15
2023-05-13T00:28:05.999Z,4.40
2023-05-13T00:30:32.964Z,4.20
2023-05-13T00:33:01.161Z,5.07
2023-05-13T00:35:28.609Z,5.07
2023-05-13T00:37:57.018Z,4.97
2023-05-13T00:40:25.232Z,4.60
2023-05-13T00:42:52.684Z,5.03
2023-05-13T00:45:20.088Z,4.82
2023-05-13T00:47:48.511Z,4.65
2023-05-13T00:50:16.066Z,5.30
2023-05-13T00:52:44.723Z,5.05
2023-05-13T00:55:12.174Z,5.13
2023-05-13T00:57:40.660Z,4.95
2023-05-13T01:00:08.856Z,5.97
2023-05-13T01:03:02.931Z,5.70
2023-05-13T01:05:50.403Z,4.88
2023-05-13T01:08:35.912Z,5.25
2023-05-13T01:11:11.921Z,5.72
2023-05-13T01:13:43.557Z,6.20
2023-05-13T01:16:36.148Z,5.68
2023-05-13T01:19:13.120Z,5.97
2023-05-13T01:21:40.503Z,6.13
2023-05-13T01:24:08.319Z,5.32
2023-05-13T01:26:35.671Z,7.03
2023-05-13T01:29:03.495Z,6.43
2023-05-13T01:31:33.133Z,5.97
2023-05-13T01:34:00.435Z,6.55
2023-05-13T01:36:29.523Z,5.80
2023-05-13T01:38:58.749Z,6.15
2023-05-13T01:41:27.591Z,6.57
2023-05-13T01:43:54.798Z,6.43
2023-05-13T01:46:22.591Z,6.07
2023-05-13T01:48:51.132Z,6.28
2023-05-13T01:51:18.487Z,6.40
2023-05-13T01:53:45.677Z,7.13
2023-05-13T01:56:12.702Z,6.30
2023-05-13T01:58:39.615Z,6.55
2023-05-13T02:01:07.154Z,5.82
2023-05-13T02:03:36.424Z,6.30
2023-05-13T02:06:03.611Z,6.93
2023-05-13T02:08:31.290Z,6.45
2023-05-13T02:10:59.895Z,6.70
2023-05-13T02:13:29.180Z,6.65
2023-05-13T02:15:56.794Z,6.60
2023-05-13T02:18:24.154Z,6.68
2023-05-13T02:20:51.508Z,6.75
2023-05-13T02:23:18.440Z,7.20
2023-05-13T02:25:45.397Z,5.65
2023-05-13T02:28:12.801Z,6.90
2023-05-13T02:30:41.833Z,5.63
2023-05-13T02:33:09.248Z,6.78
2023-05-13T02:35:36.674Z,6.55
2023-05-13T02:38:04.587Z,6.07
2023-05-13T02:40:33.665Z,6.40
2023-05-13T02:43:00.559Z,6.50
2023-05-13T02:45:41.932Z,6.75
2023-05-13T02:48:11.427Z,6.97
2023-05-13T02:50:39.432Z,6.88
2023-05-13T02:53:06.907Z,6.80
2023-05-13T02:55:36.541Z,7.18
2023-05-13T02:58:04.677Z,6.68
2023-05-13T03:00:32.172Z,6.90
2023-05-13T03:02:59.232Z,6.80
2023-05-13T03:05:28.419Z,6.93
2023-05-13T03:07:58.540Z,6.75
2023-05-13T03:10:26.283Z,6.88
2023-05-13T03:12:53.940Z,7.13
2023-05-13T03:15:20.738Z,7.18
2023-05-13T03:17:47.458Z,7.10
2023-05-13T03:20:14.639Z,6.78
2023-05-13T03:22:41.714Z,7.25
2023-05-13T03:25:09.304Z,6.60
2023-05-13T03:27:42.519Z,7.30
2023-05-13T03:30:11.646Z,7.10
2023-05-13T03:32:46.473Z,7.63
2023-05-13T03:35:16.766Z,7.40
2023-05-13T03:37:44.223Z,7.00
2023-05-13T03:40:16.225Z,6.80
2023-05-13T03:42:43.462Z,6.63
2023-05-13T03:45:11.906Z,6.68
2023-05-13T03:47:41.423Z,6.13
2023-05-13T03:50:14.294Z,6.07
2023-05-13T03:52:46.264Z,6.50
2023-05-13T03:55:15.371Z,6.20
2023-05-13T03:57:45.384Z,6.13
2023-05-13T04:00:13.623Z,6.07
2023-05-13T04:02:44.095Z,6.05
2023-05-13T04:05:13.940Z,6.25
2023-05-13T04:07:41.571Z,6.18
2023-05-13T04:10:09.364Z,5.60
2023-05-13T04:12:37.818Z,5.82
2023-05-13T04:15:05.089Z,5.70
2023-05-13T04:17:32.475Z,6.18
2023-05-13T04:19:59.425Z,5.63
2023-05-13T04:22:26.781Z,6.35
2023-05-13T04:24:56.843Z,5.53
2023-05-13T04:27:24.784Z,5.30
2023-05-13T04:29:57.491Z,5.40
2023-05-13T04:32:25.788Z,5.53
2023-05-13T04:34:55.553Z,4.97
2023-05-13T04:37:25.268Z,5.15
2023-05-13T04:39:56.137Z,4.50
2023-05-13T04:42:24.383Z,5.10
2023-05-13T04:44:51.350Z,5.28
2023-05-13T04:47:19.507Z,5.43
2023-05-13T04:49:46.488Z,4.18
2023-05-13T04:52:14.535Z,4.57
2023-05-13T04:54:42.633Z,5.10
2023-05-13T04:57:10.719Z,5.10
2023-05-13T04:59:37.804Z,5.00
2023-05-13T05:02:05.103Z,4.47
2023-05-13T05:04:34.147Z,4.97
2023-05-13T05:07:03.391Z,4.78
2023-05-13T05:09:30.862Z,4.38
2023-05-13T05:11:59.404Z,4.60
2023-05-13T05:14:28.062Z,5.30
2023-05-13T05:16:55.774Z,4.68
2023-05-13T05:19:24.918Z,4.07
2023-05-13T05:21:55.246Z,4.07
2023-05-13T05:24:22.697Z,3.88
2023-05-13T05:26:50.178Z,4.50
2023-05-13T05:29:18.689Z,3.85
2023-05-13T05:31:47.844Z,3.72
2023-05-13T05:34:16.016Z,3.67
2023-05-13T05:36:49.084Z,3.60
2023-05-13T05:39:19.635Z,3.95
2023-05-13T05:41:53.687Z,3.92
2023-05-13T05:44:26.246Z,4.10
2023-05-13T05:46:55.070Z,3.80
2023-05-13T05:49:23.827Z,3.90
2023-05-13T05:51:53.315Z,3.50
2023-05-13T05:54:33.363Z,4.05
2023-05-13T05:57:18.683Z,3.85
2023-05-13T05:59:48.768Z,3.53
2023-05-13T06:02:22.122Z,3.58
2023-05-13T06:04:52.020Z,3.75
2023-05-13T06:07:19.989Z,3.20
2023-05-13T06:09:46.920Z,3.47
2023-05-13T06:12:13.918Z,2.97
2023-05-13T06:14:41.065Z,2.95
2023-05-13T06:17:09.623Z,2.97
2023-05-13T06:19:37.452Z,2.85
2023-05-13T06:22:06.762Z,3.60
2023-05-13T06:24:37.417Z,3.08
2023-05-13T06:27:06.006Z,3.13
2023-05-13T06:29:33.892Z,3.25
2023-05-13T06:32:01.954Z,2.83
2023-05-13T06:34:31.859Z,2.65
2023-05-13T06:37:00.547Z,3.20
2023-05-13T06:39:30.293Z,3.08
2023-05-13T06:41:58.208Z,2.80
2023-05-13T06:44:32.067Z,3.30
2023-05-13T06:47:05.367Z,2.72
2023-05-13T06:49:36.272Z,2.83
2023-05-13T06:52:03.708Z,2.60
2023-05-13T06:54:31.191Z,2.90
2023-05-13T06:56:58.670Z,2.97
2023-05-13T06:59:26.250Z,3.28
2023-05-13T07:01:53.297Z,3.20
2023-05-13T07:04:20.649Z,3.05
2023-05-13T07:06:49.021Z,2.88
2023-05-13T07:09:17.279Z,2.85
2023-05-13T07:11:44.558Z,3.30
2023-05-13T07:14:11.483Z,2.47
2023-05-13T07:16:38.785Z,3.10
2023-05-13T07:19:06.552Z,2.88
2023-05-13T07:21:33.813Z,3.03
2023-05-13T07:24:02.329Z,2.83
2023-05-13T07:26:29.634Z,2.58
2023-05-13T07:28:57.601Z,2.58
2023-05-13T07:31:24.581Z,2.70
2023-05-13T07:33:51.378Z,2.53
2023-05-13T07:36:18.730Z,2.40
2023-05-13T07:38:46.442Z,2.40
2023-05-13T07:41:13.766Z,2.60
2023-05-13T07:43:41.899Z,2.92
2023-05-13T07:46:10.143Z,2.97
2023-05-13T07:48:37.434Z,2.83
2023-05-13T07:51:06.525Z,2.53
2023-05-13T07:53:33.924Z,2.53
2023-05-13T07:56:03.708Z,1.90
2023-05-13T07:58:31.277Z,1.88
2023-05-13T08:00:59.110Z,2.00
2023-05-13T08:03:26.049Z,1.90
2023-05-13T08:05:53.182Z,2.08
2023-05-13T08:08:20.006Z,2.30
2023-05-13T08:10:46.847Z,2.22
2023-05-13T08:13:14.038Z,1.90
2023-05-13T08:15:41.353Z,2.20
2023-05-13T08:18:08.692Z,2.17
2023-05-13T08:20:36.201Z,2.03
2023-05-13T08:23:03.997Z,2.15
2023-05-13T08:25:31.433Z,2.28
2023-05-13T08:27:59.324Z,1.80
2023-05-13T08:30:26.226Z,1.73
2023-05-13T08:32:53.672Z,1.90
2023-05-13T08:35:22.179Z,2.13
2023-05-13T08:37:49.737Z,1.70
2023-05-13T08:40:17.723Z,1.77
2023-05-13T08:42:50.128Z,2.08
2023-05-13T08:45:20.867Z,2.30
2023-05-13T08:47:55.870Z,2.20
2023-05-13T08:50:23.380Z,2.10
2023-05-13T08:52:54.266Z,2.00
2023-05-13T08:55:22.957Z,2.28
2023-05-13T08:57:51.265Z,2.08
2023-05-13T09:00:21.410Z,2.33
2023-05-13T09:02:50.199Z,2.30
2023-05-13T09:05:17.998Z,1.95
2023-05-13T09:07:44.941Z,2.00
2023-05-13T09:10:11.991Z,2.67
2023-05-13T09:12:52.994Z,2.83
2023-05-13T09:15:26.763Z,2.50
2023-05-13T09:17:55.130Z,2.30
2023-05-13T09:20:27.176Z,2.58
2023-05-13T09:22:57.809Z,2.53
2023-05-13T09:25:26.292Z,2.00
2023-05-13T09:27:59.018Z,2.17
2023-05-13T09:30:31.226Z,1.92
2023-05-13T09:33:04.507Z,2.38
2023-05-13T09:35:32.974Z,2.00
2023-05-13T09:38:00.278Z,2.40
2023-05-13T09:40:27.604Z,2.28
2023-05-13T09:43:00.462Z,2.60
2023-05-13T09:45:27.746Z,2.20
2023-05-13T09:47:56.205Z,2.00
2023-05-13T09:50:24.350Z,1.48
2023-05-13T09:52:51.853Z,2.30
2023-05-13T09:55:18.804Z,2.40
2023-05-13T09:57:46.272Z,2.10
2023-05-13T10:00:24.772Z,2.30
2023-05-13T10:02:59.113Z,1.80
2023-05-13T10:05:26.894Z,2.17
2023-05-13T10:07:54.822Z,2.10
2023-05-13T10:10:22.604Z,2.47
2023-05-13T10:12:52.425Z,2.20
2023-05-13T10:15:21.719Z,2.35
2023-05-13T10:17:49.989Z,2.38
2023-05-13T10:20:17.981Z,2.70
2023-05-13T10:22:46.295Z,2.30
2023-05-13T10:25:15.733Z,2.47
2023-05-13T10:27:44.836Z,2.42
2023-05-13T10:30:13.435Z,2.15
2023-05-13T10:32:41.325Z,2.17
2023-05-13T10:35:19.980Z,2.20
2023-05-13T10:38:17.487Z,2.00
2023-05-13T10:41:08.275Z,2.17
2023-05-13T10:43:36.254Z,2.33
2023-05-13T10:46:11.879Z,2.40
2023-05-13T10:48:41.059Z,2.20
2023-05-13T10:51:08.662Z,1.92
2023-05-13T10:53:44.580Z,2.20
2023-05-13T10:56:12.464Z,2.17
2023-05-13T10:58:41.440Z,2.38
2023-05-13T11:01:36.018Z,2.38
2023-05-13T11:04:05.299Z,2.33
2023-05-13T11:06:41.199Z,1.83
2023-05-13T11:09:13.297Z,2.20
2023-05-13T11:11:43.387Z,2.40
2023-05-13T11:14:21.273Z,1.95
2023-05-13T11:17:02.019Z,2.40
2023-05-13T11:19:36.804Z,2.53
2023-05-13T11:22:10.773Z,2.55
2023-05-13T11:24:39.989Z,2.30
2023-05-13T11:27:13.721Z,2.80
2023-05-13T11:29:54.257Z,2.10
2023-05-13T11:32:53.685Z,2.67
2023-05-13T11:35:33.575Z,2.47
2023-05-13T11:38:06.774Z,2.70
2023-05-13T11:40:39.436Z,2.30
2023-05-13T11:43:09.854Z,3.00
2023-05-13T11:45:40.335Z,2.65
2023-05-13T11:48:20.362Z,2.35
2023-05-13T11:50:47.365Z,3.00
2023-05-13T11:53:20.733Z,3.03
2023-05-13T11:55:49.368Z,2.42
2023-05-13T11:58:16.493Z,3.20
2023-05-13T12:00:46.363Z,3.13
2023-05-13T12:03:17.327Z,2.38
2023-05-13T12:05:45.428Z,2.20
2023-05-13T12:08:12.360Z,2.72
2023-05-13T12:10:45.807Z,3.00
2023-05-13T12:13:13.185Z,2.45
2023-05-13T12:15:40.536Z,2.90
2023-05-13T12:18:07.676Z,2.63
2023-05-13T12:20:34.751Z,2.95
2023-05-13T12:23:02.342Z,2.65
2023-05-13T12:25:38.288Z,2.60
2023-05-13T12:28:19.019Z,2.63
2023-05-13T12:30:57.533Z,2.70
2023-05-13T12:33:45.527Z,2.80
2023-05-13T12:36:20.890Z,2.78
2023-05-13T12:39:01.193Z,2.30
2023-05-13T12:41:40.097Z,2.70
2023-05-13T12:44:15.052Z,2.67
2023-05-13T12:46:52.831Z,2.58
2023-05-13T12:49:20.257Z,2.58
2023-05-13T12:51:47.115Z,2.50
2023-05-13T12:54:14.731Z,2.92
2023-05-13T12:56:41.654Z,2.30
2023-05-13T12:59:08.978Z,2.08
2023-05-13T13:01:37.349Z,2.33
2023-05-13T13:04:04.673Z,2.38
2023-05-13T13:06:32.805Z,2.65
2023-05-13T13:08:59.657Z,2.30
2023-05-13T13:11:26.898Z,2.30
2023-05-13T13:13:53.913Z,2.53
2023-05-13T13:16:22.075Z,2.78
2023-05-13T13:18:53.053Z,2.92
2023-05-13T13:21:21.095Z,2.50
2023-05-13T13:23:47.867Z,2.78
2023-05-13T13:26:15.808Z,1.90
2023-05-13T13:28:43.018Z,2.40
2023-05-13T13:31:09.778Z,2.30
2023-05-13T13:33:37.465Z,2.85
2023-05-13T13:36:05.362Z,2.70
2023-05-13T13:38:32.734Z,2.50
2023-05-13T13:40:59.601Z,2.67
2023-05-13T13:43:26.942Z,2.75
2023-05-13T13:45:53.961Z,2.72
2023-05-13T13:48:21.475Z,2.55
2023-05-13T13:50:49.799Z,2.55
2023-05-13T13:53:17.903Z,2.88
2023-05-13T13:55:44.809Z,2.38
2023-05-13T13:58:11.872Z,2.30
2023-05-13T14:00:39.382Z,2.30
2023-05-13T14:03:06.660Z,2.30
2023-05-13T14:05:33.772Z,2.30
2023-05-13T14:08:00.918Z,2.50
2023-05-13T14:10:27.708Z,2.47
2023-05-13T14:12:54.612Z,2.47
2023-05-13T14:15:21.657Z,2.00
2023-05-13T14:17:49.013Z,2.25
2023-05-13T14:20:17.014Z,1.98
2023-05-13T14:22:44.154Z,2.10
2023-05-13T14:25:11.023Z,2.33
2023-05-13T14:27:37.981Z,2.63
2023-05-13T14:30:06.866Z,2.42
2023-05-13T14:32:34.726Z,2.30
2023-05-13T14:35:01.664Z,2.28
2023-05-13T14:37:28.543Z,2.63
2023-05-13T14:39:56.081Z,2.60
2023-05-13T14:42:23.067Z,2.13
2023-05-13T14:44:50.582Z,2.17
2023-05-13T14:47:17.665Z,2.08
2023-05-13T14:49:44.722Z,2.20
2023-05-13T14:52:11.784Z,2.00
2023-05-13T14:54:38.864Z,2.10
2023-05-13T14:57:07.066Z,2.55
2023-05-13T14:59:34.219Z,2.20
2023-05-13T15:02:02.746Z,2.30
2023-05-13T15:04:29.867Z,2.85
2023-05-13T15:06:56.911Z,2.40
2023-05-13T15:09:24.013Z,2.00
2023-05-13T15:11:51.053Z,2.40
2023-05-13T15:14:18.111Z,1.90
2023-05-13T15:16:46.183Z,2.20
2023-05-13T15:19:13.941Z,1.80
2023-05-13T15:21:41.314Z,1.80
2023-05-13T15:24:08.283Z,2.03
2023-05-13T15:26:35.024Z,2.00
2023-05-13T15:29:02.300Z,1.92
2023-05-13T15:31:31.391Z,1.90
2023-05-13T15:33:59.532Z,1.75
2023-05-13T15:36:26.742Z,1.63
2023-05-13T15:38:53.778Z,1.52
2023-05-13T15:41:20.692Z,2.17
2023-05-13T15:43:47.396Z,1.77
2023-05-13T15:46:14.432Z,1.90
2023-05-13T15:48:41.657Z,1.90
2023-05-13T15:51:08.520Z,2.00
2023-05-13T15:53:36.368Z,1.73
2023-05-13T15:56:03.332Z,1.70
2023-05-13T15:58:30.461Z,1.65
2023-05-13T16:00:57.167Z,1.77
2023-05-13T16:03:24.063Z,1.92
2023-05-13T16:05:51.488Z,2.03
2023-05-13T16:08:19.029Z,2.17
2023-05-13T16:10:46.137Z,1.70
2023-05-13T16:13:13.086Z,1.70
2023-05-13T16:15:39.911Z,1.55
2023-05-13T16:18:07.243Z,1.85
2023-05-13T16:20:34.334Z,1.80
2023-05-13T16:23:01.414Z,1.73
2023-05-13T16:25:28.404Z,1.65
2023-05-13T16:27:56.725Z,1.60
2023-05-13T16:30:23.895Z,2.03
2023-05-13T16:32:54.681Z,2.00
2023-05-13T16:35:22.095Z,1.67
2023-05-13T16:37:49.725Z,1.83
2023-05-13T16:40:16.767Z,2.35
2023-05-13T16:42:43.870Z,2.17
2023-05-13T16:45:11.155Z,1.85
2023-05-13T16:47:40.188Z,1.90
2023-05-13T16:50:08.615Z,2.08
2023-05-13T16:52:36.723Z,2.00
2023-05-13T16:55:03.641Z,1.75
2023-05-13T16:57:30.494Z,1.83
2023-05-13T16:59:57.441Z,1.88
2023-05-13T17:02:24.537Z,1.88
2023-05-13T17:04:51.470Z,2.03
2023-05-13T17:07:18.231Z,2.08
2023-05-13T17:09:45.375Z,1.95
2023-05-13T17:12:12.290Z,1.90
2023-05-13T17:14:39.713Z,1.98
2023-05-13T17:17:07.234Z,1.95
2023-05-13T17:19:35.039Z,1.90
2023-05-13T17:22:03.202Z,1.75
2023-05-13T17:24:30.879Z,2.00
2023-05-13T17:26:58.688Z,2.42
2023-05-13T17:29:26.027Z,2.47
2023-05-13T17:31:55.629Z,2.28
2023-05-13T17:34:23.166Z,2.20
2023-05-13T17:36:50.375Z,1.63
2023-05-13T17:39:17.870Z,2.40
2023-05-13T17:41:45.095Z,2.17
2023-05-13T17:44:15.862Z,2.25
2023-05-13T17:46:47.649Z,2.50
2023-05-13T17:49:16.243Z,2.40
2023-05-13T17:51:53.706Z,2.30
2023-05-13T17:54:23.627Z,2.00
2023-05-13T17:57:00.358Z,2.83
2023-05-13T17:59:27.900Z,2.30
2023-05-13T18:01:54.729Z,2.30
2023-05-13T18:04:22.299Z,2.40
2023-05-13T18:06:49.967Z,2.72
2023-05-13T18:09:17.140Z,2.80
2023-05-13T18:11:45.956Z,2.55
2023-05-13T18:14:14.340Z,2.60
2023-05-13T18:16:43.492Z,2.35
2023-05-13T18:19:12.402Z,3.03
2023-05-13T18:21:42.925Z,2.80
2023-05-13T18:24:13.671Z,2.65
2023-05-13T18:26:41.403Z,2.75
2023-05-13T18:29:10.538Z,3.03
2023-05-13T18:31:37.422Z,3.40
2023-05-13T18:34:04.512Z,3.50
2023-05-13T18:36:36.790Z,3.35
2023-05-13T18:39:05.321Z,3.55
2023-05-13T18:41:33.912Z,3.55
2023-05-13T18:44:04.658Z,4.45
2023-05-13T18:46:32.058Z,3.70
2023-05-13T18:49:04.709Z,3.35
2023-05-13T18:51:33.883Z,3.08
2023-05-13T18:54:01.936Z,3.30
2023-05-13T18:56:35.155Z,3.22
2023-05-13T18:59:04.088Z,3.25
2023-05-13T19:01:32.622Z,3.22
2023-05-13T19:04:02.611Z,3.28
2023-05-13T19:06:30.834Z,3.42
2023-05-13T19:09:01.851Z,3.80
2023-05-13T19:11:37.915Z,3.45
2023-05-13T19:14:05.905Z,3.42
2023-05-13T19:16:34.001Z,3.80
2023-05-13T19:19:01.706Z,3.63
2023-05-13T19:21:34.291Z,3.38
2023-05-13T19:24:07.990Z,3.20
2023-05-13T19:26:44.741Z,3.55
2023-05-13T19:29:12.934Z,3.47
2023-05-13T19:31:45.841Z,3.63
2023-05-13T19:34:20.439Z,3.30
2023-05-13T19:36:49.848Z,3.65
2023-05-13T19:39:18.178Z,3.28
2023-05-13T19:41:47.348Z,4.18
2023-05-13T19:44:15.009Z,4.35
2023-05-13T19:46:42.369Z,4.22
2023-05-13T19:49:09.605Z,4.47
2023-05-13T19:51:36.997Z,4.32
2023-05-13T19:54:06.505Z,5.47
2023-05-13T19:56:34.175Z,5.25
2023-05-13T19:59:01.620Z,5.47
2023-05-13T20:01:28.610Z,5.47
2023-05-13T20:03:55.754Z,5.55
2023-05-13T20:06:22.867Z,5.70
2023-05-13T20:08:49.775Z,6.60
2023-05-13T20:11:16.570Z,8.10
2023-05-13T20:13:43.897Z,7.68
2023-05-13T20:16:10.720Z,8.48
2023-05-13T20:18:38.234Z,7.88
2023-05-13T20:21:05.033Z,6.90
2023-05-13T20:23:32.077Z,6.50
2023-05-13T20:25:58.882Z,6.32
2023-05-13T20:28:25.739Z,6.47
2023-05-13T20:30:53.392Z,6.50
2023-05-13T20:33:20.575Z,6.50
2023-05-13T20:35:49.963Z,5.97
2023-05-13T20:38:17.228Z,6.47
2023-05-13T20:40:44.651Z,5.53
2023-05-13T20:43:11.563Z,6.40
2023-05-13T20:45:39.715Z,5.85
2023-05-13T20:48:07.969Z,6.25
2023-05-13T20:50:36.608Z,7.22
2023-05-13T20:53:03.554Z,7.90
2023-05-13T20:55:30.801Z,7.30
2023-05-13T20:57:57.735Z,8.65
2023-05-13T21:00:24.825Z,8.85
2023-05-13T21:02:53.267Z,8.57
2023-05-13T21:05:20.434Z,8.70
2023-05-13T21:07:47.431Z,8.20
2023-05-13T21:10:14.533Z,8.70
2023-05-13T21:12:41.325Z,8.00
2023-05-13T21:15:08.862Z,8.93
2023-05-13T21:17:35.747Z,9.18
2023-05-13T21:20:02.632Z,8.60
2023-05-13T21:22:29.493Z,8.98
2023-05-13T21:24:56.867Z,7.97
2023-05-13T21:27:24.016Z,8.32
2023-05-13T21:29:50.791Z,8.20
2023-05-13T21:32:17.705Z,7.78
2023-05-13T21:34:44.573Z,7.22
2023-05-13T21:37:11.240Z,7.30
2023-05-13T21:39:38.099Z,6.30
2023-05-13T21:42:05.435Z,7.15
2023-05-13T21:44:32.525Z,6.53
2023-05-13T21:47:00.094Z,5.80
2023-05-13T21:49:26.918Z,5.70
2023-05-13T21:51:53.672Z,5.35
2023-05-13T21:54:20.638Z,5.45
2023-05-13T21:56:48.597Z,5.25
2023-05-13T21:59:15.535Z,5.68
2023-05-13T22:01:42.369Z,5.18
2023-05-13T22:04:09.277Z,5.60
2023-05-13T22:06:36.086Z,5.95
2023-05-13T22:09:02.799Z,4.72
2023-05-13T22:11:29.521Z,5.78
2023-05-13T22:13:56.308Z,5.30
2023-05-13T22:16:23.130Z,5.90
2023-05-13T22:18:50.989Z,5.82
2023-05-13T22:21:18.128Z,6.22
2023-05-13T22:23:44.881Z,6.25
2023-05-13T22:26:12.337Z,6.07
2023-05-13T22:28:39.290Z,6.20
2023-05-13T22:31:06.344Z,6.45
2023-05-13T22:33:33.439Z,7.00
2023-05-13T22:36:00.233Z,6.25
2023-05-13T22:38:27.096Z,6.25
2023-05-13T22:40:54.151Z,6.57
2023-05-13T22:43:20.906Z,6.53
2023-05-13T22:45:47.875Z,6.15
2023-05-13T22:48:15.122Z,6.07
2023-05-13T22:50:41.790Z,6.38
2023-05-13T22:53:08.701Z,6.53
2023-05-13T22:55:35.549Z,5.93
2023-05-13T22:58:02.378Z,6.63
2023-05-13T23:00:29.091Z,6.88
2023-05-13T23:02:56.034Z,6.82
2023-05-13T23:05:23.116Z,7.10
2023-05-13T23:07:49.893Z,7.47
2023-05-13T23:10:17.816Z,7.05
2023-05-13T23:12:44.830Z,6.50
2023-05-13T23:15:14.403Z,6.70
2023-05-13T23:17:41.099Z,6.20
2023-05-13T23:20:08.607Z,6.65
2023-05-13T23:22:35.605Z,6.72
2023-05-13T23:25:02.308Z,5.97
2023-05-13T23:27:31.506Z,6.05
2023-05-13T23:29:58.800Z,5.20
2023-05-13T23:32:26.018Z,6.45
2023-05-13T23:34:52.908Z,6.22
2023-05-13T23:37:21.911Z,6.05
2023-05-13T23:39:48.640Z,5.85
2023-05-13T23:42:16.500Z,6.38
2023-05-13T23:44:43.245Z,5.10
2023-05-13T23:47:10.107Z,5.85
2023-05-13T23:49:36.920Z,6.18
2023-05-13T23:52:05.302Z,5.70
2023-05-13T23:54:32.121Z,5.90
2023-05-13T23:56:59.163Z,5.32
2023-05-13T23:59:26.211Z,5.70
